Time;durP1;ratioP1;P1;durP2;ratioP2;P2;SDS_P1;SDS_P2;PMS_P1;PMS_P2;Temp;Humidity;BMP_temperature;BMP_pressure;BME280_temperature;BME280_humidity;BME280_pressure;Samples;Min_cycle;Max_cycle;Signal;HPM_P1;HPM_P2
2022/10/19 00:05:44;;;;;;;7.20;5.40;;;;;;;13.08;78.49;99301.82;421708;1296;97905;-40
2022/10/19 00:15:51;;;;;;;8.00;6.50;;;;;;;13.11;78.53;99305.03;421847;1295;109585;-38
2022/10/19 00:25:59;;;;;;;9.20;6.70;;;;;;;13.12;78.69;99310.03;421403;1295;108546;-41
2022/10/19 00:36:05;;;;;;;11.80;7.60;;;;;;;13.04;78.70;99301.79;421954;1296;97879;-40
2022/10/19 00:46:14;;;;;;;10.90;8.30;;;;;;;12.89;78.85;99302.59;421997;1294;108099;-40
2022/10/19 00:56:22;;;;;;;12.10;10.10;;;;;;;12.85;79.10;99302.40;422152;1287;96619;-40
2022/10/19 01:06:29;;;;;;;13.10;10.50;;;;;;;12.85;79.18;99293.73;423319;1276;109702;-39
2022/10/19 01:16:36;;;;;;;11.60;9.50;;;;;;;12.84;79.36;99294.92;422051;1295;108489;-39
2022/10/19 01:27:10;;;;;;;18.60;10.40;;;;;;;12.75;79.45;99301.01;421944;1293;98430;-40
2022/10/19 01:37:15;;;;;;;16.20;9.90;;;;;;;12.65;79.56;99310.21;422533;1289;107562;-39
2022/10/19 01:47:30;;;;;;;13.90;10.00;;;;;;;12.39;79.54;99299.92;422255;1289;96679;-39
2022/10/19 01:57:37;;;;;;;14.50;10.20;;;;;;;12.20;79.66;99287.33;422128;1296;110137;-41
2022/10/19 02:07:50;;;;;;;13.60;10.40;;;;;;;12.16;79.83;99283.39;422055;1294;108244;-41
2022/10/19 02:17:58;;;;;;;15.80;10.20;;;;;;;12.14;79.77;99284.15;421901;1287;100315;-41
2022/10/19 02:28:06;;;;;;;23.50;12.90;;;;;;;12.18;79.87;99284.83;422060;1296;106922;-42
2022/10/19 02:38:16;;;;;;;16.70;14.00;;;;;;;12.16;79.85;99281.92;421925;1295;97788;-40
2022/10/19 02:48:27;;;;;;;21.90;15.80;;;;;;;12.10;79.94;99285.88;422267;1295;111916;-40
2022/10/19 02:58:34;;;;;;;23.00;16.60;;;;;;;11.99;80.07;99286.48;422193;1288;108472;-39
2022/10/19 03:08:41;;;;;;;25.00;17.30;;;;;;;11.80;79.89;99279.83;422078;1292;97902;-41
2022/10/19 03:18:49;;;;;;;19.90;12.60;;;;;;;11.64;79.88;99277.45;421943;1295;261815;-40
2022/10/19 03:28:56;;;;;;;17.30;13.30;;;;;;;11.53;79.98;99271.41;421956;1294;96859;-41
2022/10/19 03:39:07;;;;;;;15.40;12.70;;;;;;;11.44;79.94;99272.30;422132;1296;111561;-40
2022/10/19 03:49:14;;;;;;;17.10;11.90;;;;;;;11.30;80.05;99265.20;422107;1296;108811;-41
2022/10/19 04:09:27;;;;;;;21.60;13.40;;;;;;;10.99;80.26;99247.91;422130;1296;112163;-42
2022/10/19 04:19:35;;;;;;;25.10;14.80;;;;;;;10.98;80.27;99253.25;422129;1295;108117;-40
2022/10/19 04:29:42;;;;;;;17.10;12.90;;;;;;;11.01;80.54;99238.68;421775;1288;96886;-40
2022/10/19 04:39:49;;;;;;;19.20;15.00;;;;;;;11.01;80.55;99231.48;422263;1295;107891;-39
2022/10/19 04:49:56;;;;;;;23.40;15.10;;;;;;;10.93;80.56;99225.89;422144;1295;97985;-40
2022/10/19 05:00:04;;;;;;;20.00;12.60;;;;;;;10.82;80.52;99222.57;422126;1295;110980;-41
2022/10/19 05:10:11;;;;;;;18.80;12.80;;;;;;;10.82;80.86;99211.73;422248;1291;107359;-39
2022/10/19 05:20:18;;;;;;;22.80;13.00;;;;;;;10.81;80.74;99206.63;422382;1294;96639;-40
2022/10/19 05:30:25;;;;;;;16.20;11.90;;;;;;;10.82;80.98;99209.46;421937;1295;109222;-39
2022/10/19 05:40:32;;;;;;;22.40;13.50;;;;;;;10.87;81.14;99216.86;422051;1288;97523;-41
2022/10/19 05:50:39;;;;;;;22.60;13.00;;;;;;;11.00;81.21;99226.48;422180;1295;111616;-40
2022/10/19 06:00:51;;;;;;;22.50;13.80;;;;;;;11.12;81.45;99229.34;422120;1291;108418;-40
2022/10/19 06:11:07;;;;;;;19.00;13.80;;;;;;;11.26;81.45;99237.87;422028;1295;97480;-39
2022/10/19 06:21:16;;;;;;;17.90;12.50;;;;;;;11.32;81.44;99247.05;421872;1295;107205;-39
2022/10/19 06:31:23;;;;;;;17.80;12.20;;;;;;;11.24;81.68;99246.52;422023;1296;96616;-39
2022/10/19 06:41:31;;;;;;;19.60;11.10;;;;;;;11.20;81.78;99240.96;421908;1292;110413;-39
2022/10/19 06:51:39;;;;;;;26.10;12.40;;;;;;;11.26;81.90;99252.25;422023;1289;107668;-40
2022/10/19 07:01:46;;;;;;;15.40;10.80;;;;;;;11.22;81.97;99259.86;421659;1295;117808;-42
2022/10/19 07:11:53;;;;;;;21.00;10.00;;;;;;;11.18;81.91;99260.48;422194;1289;108565;-39
2022/10/19 07:22:01;;;;;;;13.80;8.30;;;;;;;11.24;81.91;99266.66;422323;1295;98684;-39
2022/10/19 07:32:07;;;;;;;16.00;7.90;;;;;;;11.41;81.84;99276.19;422257;1289;110348;-39
2022/10/19 07:42:14;;;;;;;19.30;9.10;;;;;;;11.50;81.99;99274.42;422153;1289;106535;-39
2022/10/19 07:52:22;;;;;;;19.40;8.80;;;;;;;11.51;81.90;99276.73;422039;1295;97546;-40
2022/10/19 08:02:27;;;;;;;11.50;7.40;;;;;;;11.49;81.72;99284.09;422020;1291;110517;-39
2022/10/19 08:12:54;;;;;;;10.80;6.60;;;;;;;11.55;81.54;99277.86;421883;1295;107504;-38
2022/10/19 08:23:01;;;;;;;8.50;5.60;;;;;;;11.95;81.40;99275.28;421835;1281;97486;-40
2022/10/19 08:33:11;;;;;;;10.60;5.60;;;;;;;12.05;80.78;99280.42;421757;1288;107634;-38
2022/10/19 08:43:26;;;;;;;16.40;5.60;;;;;;;11.98;80.35;99284.21;422079;1291;97526;-40
2022/10/19 09:03:43;;;;;;;13.00;6.50;;;;;;;11.98;79.54;99288.14;422503;1280;108390;-40
2022/10/19 09:24:11;;;;;;;10.00;5.80;;;;;;;12.39;78.54;99288.64;422032;1295;108933;-39
2022/10/19 09:34:20;;;;;;;10.70;3.50;;;;;;;12.67;77.99;99283.45;422305;1295;107294;-39
2022/10/19 09:44:28;;;;;;;18.10;4.60;;;;;;;12.70;77.30;99288.42;422297;1295;97874;-39
2022/10/19 09:54:36;;;;;;;6.40;2.60;;;;;;;12.45;76.42;99293.29;422436;1289;111187;-39
2022/10/19 10:04:45;;;;;;;4.10;2.80;;;;;;;13.02;76.02;99295.77;421844;1295;108380;-41
2022/10/19 10:25:00;;;;;;;5.60;2.60;;;;;;;12.77;74.13;99314.45;422178;1295;97494;-40
2022/10/19 10:35:05;;;;;;;9.00;2.80;;;;;;;12.62;73.78;99318.14;422363;1288;109901;-40
2022/10/19 10:45:16;;;;;;;5.90;2.20;;;;;;;12.62;73.15;99321.54;422092;1295;108852;-40
2022/10/19 10:55:22;;;;;;;2.70;1.80;;;;;;;12.65;72.57;99307.55;422403;1295;97491;-40
2022/10/19 11:05:32;;;;;;;8.20;3.90;;;;;;;12.40;72.26;99313.52;421549;1295;119840;-40
2022/10/19 11:15:46;;;;;;;14.00;6.50;;;;;;;12.59;72.25;99312.83;422186;1295;108592;-40
2022/10/19 11:25:53;;;;;;;11.50;5.20;;;;;;;12.92;72.01;99292.25;422098;1295;98020;-39
2022/10/19 11:36:03;;;;;;;10.20;5.30;;;;;;;13.05;71.34;99288.27;422298;1296;110592;-39
2022/10/19 11:56:23;;;;;;;8.80;2.80;;;;;;;12.89;70.12;99287.77;422075;1291;97954;-41
2022/10/19 12:06:43;;;;;;;8.00;1.80;;;;;;;12.88;70.24;99290.31;422448;1281;110295;-39
2022/10/19 12:16:48;;;;;;;10.10;2.70;;;;;;;12.73;70.41;99293.58;422954;1282;107872;-39
2022/10/19 12:26:57;;;;;;;5.60;2.20;;;;;;;12.68;70.56;99282.05;421886;1295;97885;-40
2022/10/19 12:37:03;;;;;;;4.50;1.60;;;;;;;12.92;70.58;99268.38;422224;1295;110202;-40
2022/10/19 12:47:12;;;;;;;6.70;1.80;;;;;;;13.08;70.11;99266.94;421937;1296;107779;-41
2022/10/19 12:57:32;;;;;;;5.40;2.40;;;;;;;12.56;70.00;99279.45;422171;1298;97979;-40
2022/10/19 13:07:39;;;;;;;9.00;3.40;;;;;;;11.89;71.42;99296.71;422163;1298;109208;-40
2022/10/19 13:17:47;;;;;;;9.70;3.90;;;;;;;11.61;72.52;99295.33;422212;1288;97938;-40
2022/10/19 13:27:54;;;;;;;7.80;3.30;;;;;;;11.82;73.10;99292.60;422055;1296;109787;-40
2022/10/19 13:38:25;;;;;;;8.10;2.40;;;;;;;11.85;73.33;99293.77;422288;1296;107286;-40
2022/10/19 13:48:30;;;;;;;8.00;3.70;;;;;;;11.66;73.59;99297.69;421652;1298;96674;-40
2022/10/19 13:59:15;;;;;;;5.20;2.50;;;;;;;11.76;73.82;99297.63;421861;1299;97777;-41
2022/10/19 14:09:57;;;;;;;12.00;4.10;;;;;;;11.99;73.65;99302.27;422034;1281;108264;-39
2022/10/19 14:20:24;;;;;;;5.20;2.70;;;;;;;12.09;73.67;99302.29;421942;1288;98185;-40
2022/10/19 14:30:34;;;;;;;6.10;3.40;;;;;;;11.94;73.66;99304.61;421587;1289;107726;-41
2022/10/19 14:40:43;;;;;;;6.60;4.00;;;;;;;11.65;73.71;99289.30;422036;1289;97879;-40
2022/10/19 14:50:55;;;;;;;4.60;1.90;;;;;;;11.57;73.74;99291.54;421906;1296;97889;-40
2022/10/19 15:01:01;;;;;;;7.20;4.30;;;;;;;11.39;74.08;99297.67;421946;1295;108195;-40
2022/10/19 15:11:06;;;;;;;11.40;6.20;;;;;;;11.26;74.43;99299.17;421758;1288;279792;-40
2022/10/19 15:21:15;;;;;;;7.70;5.50;;;;;;;11.12;74.58;99304.23;422103;1294;108981;-40
2022/10/19 15:31:24;;;;;;;;;;;;;;;11.01;74.73;99309.80;421706;1296;108443;-40
2022/10/19 15:41:34;;;;;;;10.70;6.80;;;;;;;10.89;75.15;99332.13;421628;1288;97784;-40
2022/10/19 16:01:54;;;;;;;9.70;5.30;;;;;;;10.49;75.80;99344.25;422032;1296;97762;-40
2022/10/19 16:12:02;;;;;;;9.70;7.60;;;;;;;10.39;75.96;99354.34;421793;1298;111688;-41
2022/10/19 16:22:10;;;;;;;13.80;8.90;;;;;;;10.22;76.24;99365.91;421520;1288;108582;-39
2022/10/19 16:32:17;;;;;;;18.00;9.60;;;;;;;10.11;76.39;99380.52;422062;1294;100206;-41
2022/10/19 16:42:24;;;;;;;11.70;7.10;;;;;;;10.09;76.52;99385.24;421608;1296;107816;-41
2022/10/19 16:52:36;;;;;;;9.70;6.40;;;;;;;10.11;76.80;99388.70;421576;1295;98064;-40
2022/10/19 17:02:46;;;;;;;11.50;7.40;;;;;;;10.05;77.06;99400.54;421663;1296;111745;-40
2022/10/19 17:12:53;;;;;;;16.40;11.00;;;;;;;9.90;77.41;99417.97;421904;1295;105918;-41
2022/10/19 17:23:00;;;;;;;24.40;11.30;;;;;;;9.74;77.68;99439.32;422176;1295;97484;-41
2022/10/19 17:33:07;;;;;;;15.00;11.20;;;;;;;9.64;77.72;99448.02;422070;1295;109792;-41
2022/10/19 17:43:14;;;;;;;12.60;7.40;;;;;;;9.50;77.98;99456.54;421987;1293;107246;-40
2022/10/19 17:53:21;;;;;;;13.10;9.50;;;;;;;9.36;78.16;99470.62;422260;1294;97802;-40
2022/10/19 18:03:31;;;;;;;11.20;6.60;;;;;;;9.21;78.41;99473.64;421988;1296;108625;-41
2022/10/19 18:13:38;;;;;;;9.70;6.30;;;;;;;9.09;78.45;99481.33;422097;1295;97893;-41
2022/10/19 18:23:45;;;;;;;12.50;6.60;;;;;;;9.00;78.63;99488.00;422156;1297;109480;-40
2022/10/19 18:34:00;;;;;;;14.30;8.70;;;;;;;8.84;78.64;99491.23;421885;1296;107493;-40
2022/10/19 18:44:09;;;;;;;14.30;8.50;;;;;;;8.63;78.79;99496.25;421560;1287;97880;-40
2022/10/19 18:54:14;;;;;;;16.30;8.50;;;;;;;8.45;78.91;99496.76;422103;1292;110478;-41
2022/10/19 19:04:21;;;;;;;15.80;8.90;;;;;;;8.34;78.99;99507.65;421987;1297;108053;-41
2022/10/19 19:14:28;;;;;;;16.10;9.70;;;;;;;8.25;78.97;99514.60;421791;1301;97579;-40
2022/10/19 19:24:35;;;;;;;29.80;14.50;;;;;;;8.18;79.05;99517.33;422179;1295;110043;-40
2022/10/19 19:34:42;;;;;;;38.70;24.10;;;;;;;8.00;78.86;99530.48;421927;1288;97883;-41
2022/10/19 19:44:50;;;;;;;40.80;28.80;;;;;;;7.77;78.96;99546.65;422051;1296;111058;-40
2022/10/19 19:54:59;;;;;;;33.90;18.80;;;;;;;7.48;78.68;99550.74;422060;1289;109539;-40
2022/10/19 20:05:04;;;;;;;33.70;21.30;;;;;;;7.22;78.81;99559.73;422188;1296;97883;-40
2022/10/19 20:15:13;;;;;;;24.20;15.20;;;;;;;7.20;78.94;99574.41;422537;1301;111365;-40
2022/10/19 20:25:20;;;;;;;24.80;14.90;;;;;;;7.10;79.02;99582.63;421861;1296;106545;-40
2022/10/19 20:35:28;;;;;;;36.90;19.20;;;;;;;7.03;79.31;99589.09;422070;1293;98176;-40
2022/10/19 20:45:35;;;;;;;19.30;10.20;;;;;;;7.02;79.24;99595.50;421868;1301;110778;-41
2022/10/19 20:55:42;;;;;;;22.60;12.20;;;;;;;6.96;78.98;99601.63;422036;1301;107484;-40
2022/10/19 21:05:49;;;;;;;21.60;10.00;;;;;;;6.85;78.81;99610.41;422049;1288;97870;-40
2022/10/19 21:15:56;;;;;;;14.10;9.00;;;;;;;6.58;78.92;99607.16;422163;1294;107177;-41
2022/10/19 21:26:03;;;;;;;19.30;9.60;;;;;;;6.19;78.77;99611.27;422344;1290;97879;-40
2022/10/19 21:36:12;;;;;;;16.50;9.60;;;;;;;5.80;78.51;99612.48;422080;1295;110677;-40
2022/10/19 21:46:22;;;;;;;15.60;8.90;;;;;;;5.60;78.68;99607.42;422133;1295;107592;-40
2022/10/19 21:56:29;;;;;;;14.20;7.90;;;;;;;5.59;78.97;99605.98;422302;1290;97509;-40
2022/10/19 22:06:37;;;;;;;17.70;8.60;;;;;;;5.41;79.05;99603.89;422288;1288;108808;-40
2022/10/19 22:16:44;;;;;;;17.60;9.10;;;;;;;5.26;79.05;99612.23;422057;1295;98574;-40
2022/10/19 22:26:52;;;;;;;11.80;7.80;;;;;;;4.86;78.52;99620.71;422094;1295;96626;-40
2022/10/19 22:36:59;;;;;;;16.60;9.20;;;;;;;4.67;78.61;99624.06;422064;1288;109495;-40
2022/10/19 22:47:06;;;;;;;25.00;11.60;;;;;;;4.47;78.63;99626.79;421781;1290;97902;-49
2022/10/19 22:57:13;;;;;;;26.70;15.20;;;;;;;4.20;78.75;99637.13;422145;1289;97775;-40
2022/10/19 23:07:20;;;;;;;27.50;16.60;;;;;;;4.01;78.97;99632.94;422039;1296;109610;-40
2022/10/19 23:17:27;;;;;;;21.30;11.80;;;;;;;3.79;78.90;99625.69;422194;1294;107848;-40
2022/10/19 23:27:34;;;;;;;21.30;11.90;;;;;;;3.73;78.94;99635.35;422169;1294;97918;-41
2022/10/19 23:37:42;;;;;;;21.90;13.10;;;;;;;3.66;78.91;99649.66;422092;1295;109496;-41
2022/10/19 23:47:49;;;;;;;24.00;13.80;;;;;;;3.63;78.88;99661.00;422048;1295;109056;-39
2022/10/19 23:57:56;;;;;;;33.30;16.60;;;;;;;3.34;78.80;99665.25;422248;1296;97925;-40
